Sueca, Spain
Current Conditions -  °F | °C
As of 2:30 PM on Friday 28 Nov 2014 (Local Time) from LEVC Reporting Station
Scattered Clouds Scattered Clouds  
Wind Chill: 18°   Ceiling: Unl
Heat Index: 18°   Visibility: 6mi
Dew Point: 12°   Wind: 15mph
Humidity: 68%   Direction: 110°ESE
Pressure: 29.21"   Gusts: NA
Location:  39.2°N, 0.31°W
Report Text: LEVC 281330Z 11013KT 9999 SCT025 18/12 Q0989 NOSIG
Loading
Personal Weather Stations






























Interactive Weather Map New forecast layout! Learn more

10-Day Weather Forecast

Advertisements
Track Severe Weather on mobile